sensor_id;sensor_type;location;lat;lon;timestamp;temperature;humidity
20335;DHT22;10325;51.468;5.804;2023-05-10T00:01:22;21.40;63.50
20335;DHT22;10325;51.468;5.804;2023-05-10T00:03:52;21.50;63.50
20335;DHT22;10325;51.468;5.804;2023-05-10T00:06:35;21.50;63.60
20335;DHT22;10325;51.468;5.804;2023-05-10T00:09:04;21.50;63.50
20335;DHT22;10325;51.468;5.804;2023-05-10T00:11:46;21.50;63.60
20335;DHT22;10325;51.468;5.804;2023-05-10T00:14:14;21.50;63.60
20335;DHT22;10325;51.468;5.804;2023-05-10T00:16:46;21.40;63.50
20335;DHT22;10325;51.468;5.804;2023-05-10T00:19:15;21.40;63.50
20335;DHT22;10325;51.468;5.804;2023-05-10T00:21:47;21.40;63.50
20335;DHT22;10325;51.468;5.804;2023-05-10T00:24:18;21.40;63.50
20335;DHT22;10325;51.468;5.804;2023-05-10T00:26:46;21.40;63.50
20335;DHT22;10325;51.468;5.804;2023-05-10T00:29:18;21.40;63.60
20335;DHT22;10325;51.468;5.804;2023-05-10T00:32:03;21.40;63.60
20335;DHT22;10325;51.468;5.804;2023-05-10T00:34:35;21.40;63.60
20335;DHT22;10325;51.468;5.804;2023-05-10T00:37:05;21.40;64.20
20335;DHT22;10325;51.468;5.804;2023-05-10T00:39:39;21.40;63.60
20335;DHT22;10325;51.468;5.804;2023-05-10T00:42:10;21.40;63.60
20335;DHT22;10325;51.468;5.804;2023-05-10T00:44:41;21.40;63.60
20335;DHT22;10325;51.468;5.804;2023-05-10T00:47:14;21.40;63.60
20335;DHT22;10325;51.468;5.804;2023-05-10T00:49:44;21.40;63.60
20335;DHT22;10325;51.468;5.804;2023-05-10T00:52:15;21.40;63.60
20335;DHT22;10325;51.468;5.804;2023-05-10T00:54:44;21.40;63.60
20335;DHT22;10325;51.468;5.804;2023-05-10T00:57:12;21.40;63.60
20335;DHT22;10325;51.468;5.804;2023-05-10T00:59:42;21.40;63.60
20335;DHT22;10325;51.468;5.804;2023-05-10T01:02:13;21.40;63.60
20335;DHT22;10325;51.468;5.804;2023-05-10T01:04:45;21.40;63.60
20335;DHT22;10325;51.468;5.804;2023-05-10T01:07:20;21.30;63.60
20335;DHT22;10325;51.468;5.804;2023-05-10T01:09:49;21.40;63.70
20335;DHT22;10325;51.468;5.804;2023-05-10T01:12:19;21.40;63.70
20335;DHT22;10325;51.468;5.804;2023-05-10T01:14:47;21.40;64.30
20335;DHT22;10325;51.468;5.804;2023-05-10T01:17:16;21.40;63.70
20335;DHT22;10325;51.468;5.804;2023-05-10T01:19:49;21.40;64.20
20335;DHT22;10325;51.468;5.804;2023-05-10T01:34:35;21.30;63.70
20335;DHT22;10325;51.468;5.804;2023-05-10T01:37:22;21.30;63.80
20335;DHT22;10325;51.468;5.804;2023-05-10T01:40:00;21.30;63.80
20335;DHT22;10325;51.468;5.804;2023-05-10T01:42:46;21.30;63.80
20335;DHT22;10325;51.468;5.804;2023-05-10T01:45:47;21.30;63.80
20335;DHT22;10325;51.468;5.804;2023-05-10T01:48:27;21.30;63.80
20335;DHT22;10325;51.468;5.804;2023-05-10T01:51:01;21.30;63.90
20335;DHT22;10325;51.468;5.804;2023-05-10T01:53:35;21.30;63.90
20335;DHT22;10325;51.468;5.804;2023-05-10T01:56:10;21.30;63.90
20335;DHT22;10325;51.468;5.804;2023-05-10T01:58:43;21.30;63.80
20335;DHT22;10325;51.468;5.804;2023-05-10T02:01:16;21.30;63.80
20335;DHT22;10325;51.468;5.804;2023-05-10T02:04:05;21.30;63.80
20335;DHT22;10325;51.468;5.804;2023-05-10T02:06:49;21.30;63.80
20335;DHT22;10325;51.468;5.804;2023-05-10T02:09:25;21.30;63.80
20335;DHT22;10325;51.468;5.804;2023-05-10T02:11:55;21.30;63.80
20335;DHT22;10325;51.468;5.804;2023-05-10T02:14:25;21.30;63.80
20335;DHT22;10325;51.468;5.804;2023-05-10T02:16:59;21.30;63.70
20335;DHT22;10325;51.468;5.804;2023-05-10T02:19:38;21.20;63.70
20335;DHT22;10325;51.468;5.804;2023-05-10T02:22:11;21.30;63.80
20335;DHT22;10325;51.468;5.804;2023-05-10T02:24:44;21.20;63.80
20335;DHT22;10325;51.468;5.804;2023-05-10T02:27:15;21.30;63.80
20335;DHT22;10325;51.468;5.804;2023-05-10T02:29:45;21.30;63.80
20335;DHT22;10325;51.468;5.804;2023-05-10T02:32:17;21.30;63.80
20335;DHT22;10325;51.468;5.804;2023-05-10T02:34:46;21.30;63.80
20335;DHT22;10325;51.468;5.804;2023-05-10T02:37:22;21.30;63.80
20335;DHT22;10325;51.468;5.804;2023-05-10T02:39:56;21.20;63.80
20335;DHT22;10325;51.468;5.804;2023-05-10T02:42:35;21.30;63.90
20335;DHT22;10325;51.468;5.804;2023-05-10T02:45:12;21.30;63.90
20335;DHT22;10325;51.468;5.804;2023-05-10T02:47:40;21.20;64.40
20335;DHT22;10325;51.468;5.804;2023-05-10T02:50:11;21.20;63.80
20335;DHT22;10325;51.468;5.804;2023-05-10T02:52:46;21.20;63.90
20335;DHT22;10325;51.468;5.804;2023-05-10T02:55:22;21.20;63.80
20335;DHT22;10325;51.468;5.804;2023-05-10T02:58:00;21.20;63.80
20335;DHT22;10325;51.468;5.804;2023-05-10T03:00:45;21.20;63.90
20335;DHT22;10325;51.468;5.804;2023-05-10T03:03:15;21.20;63.90
20335;DHT22;10325;51.468;5.804;2023-05-10T03:05:47;21.20;63.90
20335;DHT22;10325;51.468;5.804;2023-05-10T03:08:20;21.20;63.90
20335;DHT22;10325;51.468;5.804;2023-05-10T03:17:15;21.20;63.90
20335;DHT22;10325;51.468;5.804;2023-05-10T03:20:03;21.20;64.10
20335;DHT22;10325;51.468;5.804;2023-05-10T03:22:47;21.20;64.10
20335;DHT22;10325;51.468;5.804;2023-05-10T03:25:22;21.20;64.10
20335;DHT22;10325;51.468;5.804;2023-05-10T03:28:01;21.20;64.10
20335;DHT22;10325;51.468;5.804;2023-05-10T03:30:31;21.20;64.00
20335;DHT22;10325;51.468;5.804;2023-05-10T03:33:09;21.20;64.10
20335;DHT22;10325;51.468;5.804;2023-05-10T03:35:40;21.20;64.00
20335;DHT22;10325;51.468;5.804;2023-05-10T03:38:08;21.20;64.00
20335;DHT22;10325;51.468;5.804;2023-05-10T03:40:40;21.20;63.90
20335;DHT22;10325;51.468;5.804;2023-05-10T03:43:13;21.20;63.90
20335;DHT22;10325;51.468;5.804;2023-05-10T03:45:43;21.20;63.90
20335;DHT22;10325;51.468;5.804;2023-05-10T03:48:15;21.20;63.90
20335;DHT22;10325;51.468;5.804;2023-05-10T03:50:47;21.20;63.90
20335;DHT22;10325;51.468;5.804;2023-05-10T03:53:20;21.20;63.90
20335;DHT22;10325;51.468;5.804;2023-05-10T03:55:50;21.20;63.80
20335;DHT22;10325;51.468;5.804;2023-05-10T03:58:32;21.20;63.80
20335;DHT22;10325;51.468;5.804;2023-05-10T04:01:07;21.20;63.80
20335;DHT22;10325;51.468;5.804;2023-05-10T04:03:36;21.20;63.80
20335;DHT22;10325;51.468;5.804;2023-05-10T04:06:06;21.10;63.80
20335;DHT22;10325;51.468;5.804;2023-05-10T04:08:48;21.10;63.80
20335;DHT22;10325;51.468;5.804;2023-05-10T04:11:19;21.20;63.90
20335;DHT22;10325;51.468;5.804;2023-05-10T04:13:52;21.10;63.80
20335;DHT22;10325;51.468;5.804;2023-05-10T04:16:22;21.20;63.80
20335;DHT22;10325;51.468;5.804;2023-05-10T04:18:53;21.20;63.80
20335;DHT22;10325;51.468;5.804;2023-05-10T04:21:21;21.10;63.70
20335;DHT22;10325;51.468;5.804;2023-05-10T04:23:51;21.20;63.80
20335;DHT22;10325;51.468;5.804;2023-05-10T04:26:31;21.10;63.80
20335;DHT22;10325;51.468;5.804;2023-05-10T04:28:59;21.10;63.80
20335;DHT22;10325;51.468;5.804;2023-05-10T04:31:33;21.10;63.70
20335;DHT22;10325;51.468;5.804;2023-05-10T04:34:04;21.10;63.70
20335;DHT22;10325;51.468;5.804;2023-05-10T04:36:33;21.10;63.70
20335;DHT22;10325;51.468;5.804;2023-05-10T04:39:05;21.10;63.70
20335;DHT22;10325;51.468;5.804;2023-05-10T04:41:37;21.20;63.80
20335;DHT22;10325;51.468;5.804;2023-05-10T04:44:08;21.10;63.70
20335;DHT22;10325;51.468;5.804;2023-05-10T04:46:52;21.10;63.70
20335;DHT22;10325;51.468;5.804;2023-05-10T04:49:22;21.10;63.70
20335;DHT22;10325;51.468;5.804;2023-05-10T04:51:53;21.10;63.70
20335;DHT22;10325;51.468;5.804;2023-05-10T04:54:22;21.10;63.70
20335;DHT22;10325;51.468;5.804;2023-05-10T04:56:52;21.10;63.70
20335;DHT22;10325;51.468;5.804;2023-05-10T04:59:20;21.10;63.70
20335;DHT22;10325;51.468;5.804;2023-05-10T05:01:48;21.10;63.70
20335;DHT22;10325;51.468;5.804;2023-05-10T05:04:19;21.10;63.70
20335;DHT22;10325;51.468;5.804;2023-05-10T05:06:50;21.10;64.30
20335;DHT22;10325;51.468;5.804;2023-05-10T05:09:21;21.10;63.60
20335;DHT22;10325;51.468;5.804;2023-05-10T05:11:49;21.10;63.70
20335;DHT22;10325;51.468;5.804;2023-05-10T05:14:21;21.10;63.60
20335;DHT22;10325;51.468;5.804;2023-05-10T05:16:53;21.10;63.60
20335;DHT22;10325;51.468;5.804;2023-05-10T05:19:22;21.10;63.60
20335;DHT22;10325;51.468;5.804;2023-05-10T05:21:53;21.10;63.70
20335;DHT22;10325;51.468;5.804;2023-05-10T05:24:23;21.10;63.70
20335;DHT22;10325;51.468;5.804;2023-05-10T05:26:54;21.10;63.70
20335;DHT22;10325;51.468;5.804;2023-05-10T05:29:24;21.10;63.70
20335;DHT22;10325;51.468;5.804;2023-05-10T05:31:53;21.10;63.70
20335;DHT22;10325;51.468;5.804;2023-05-10T05:34:27;21.10;63.70
20335;DHT22;10325;51.468;5.804;2023-05-10T05:36:57;21.10;63.70
20335;DHT22;10325;51.468;5.804;2023-05-10T05:39:29;21.10;63.90
20335;DHT22;10325;51.468;5.804;2023-05-10T05:42:01;21.10;64.00
20335;DHT22;10325;51.468;5.804;2023-05-10T05:44:30;21.10;64.00
20335;DHT22;10325;51.468;5.804;2023-05-10T05:47:02;21.10;64.00
20335;DHT22;10325;51.468;5.804;2023-05-10T05:49:34;21.10;64.10
20335;DHT22;10325;51.468;5.804;2023-05-10T05:52:05;21.10;64.10
20335;DHT22;10325;51.468;5.804;2023-05-10T05:54:35;21.10;64.30
20335;DHT22;10325;51.468;5.804;2023-05-10T05:57:04;21.10;64.30
20335;DHT22;10325;51.468;5.804;2023-05-10T05:59:33;21.10;64.40
20335;DHT22;10325;51.468;5.804;2023-05-10T06:02:05;21.10;64.30
20335;DHT22;10325;51.468;5.804;2023-05-10T06:04:47;21.10;64.40
20335;DHT22;10325;51.468;5.804;2023-05-10T06:07:19;21.10;64.50
20335;DHT22;10325;51.468;5.804;2023-05-10T06:09:49;21.10;64.70
20335;DHT22;10325;51.468;5.804;2023-05-10T06:12:19;21.10;64.70
20335;DHT22;10325;51.468;5.804;2023-05-10T06:14:48;21.10;64.70
20335;DHT22;10325;51.468;5.804;2023-05-10T06:17:17;21.10;64.70
20335;DHT22;10325;51.468;5.804;2023-05-10T06:19:48;21.10;64.70
20335;DHT22;10325;51.468;5.804;2023-05-10T06:22:20;21.10;64.60
20335;DHT22;10325;51.468;5.804;2023-05-10T06:24:51;21.10;64.50
20335;DHT22;10325;51.468;5.804;2023-05-10T06:27:22;21.10;64.50
20335;DHT22;10325;51.468;5.804;2023-05-10T06:29:52;21.10;64.50
20335;DHT22;10325;51.468;5.804;2023-05-10T06:32:32;21.10;64.50
20335;DHT22;10325;51.468;5.804;2023-05-10T06:35:04;21.10;64.50
20335;DHT22;10325;51.468;5.804;2023-05-10T06:37:36;21.10;64.50
20335;DHT22;10325;51.468;5.804;2023-05-10T06:40:06;21.10;64.40
20335;DHT22;10325;51.468;5.804;2023-05-10T06:42:37;21.10;64.40
20335;DHT22;10325;51.468;5.804;2023-05-10T06:45:10;21.10;64.40
20335;DHT22;10325;51.468;5.804;2023-05-10T06:47:42;21.10;64.40
20335;DHT22;10325;51.468;5.804;2023-05-10T06:50:11;21.10;64.30
20335;DHT22;10325;51.468;5.804;2023-05-10T06:52:41;21.10;64.30
20335;DHT22;10325;51.468;5.804;2023-05-10T06:55:11;21.10;64.30
20335;DHT22;10325;51.468;5.804;2023-05-10T06:57:42;21.10;64.20
20335;DHT22;10325;51.468;5.804;2023-05-10T07:00:14;21.10;64.20
20335;DHT22;10325;51.468;5.804;2023-05-10T07:02:46;21.10;64.30
20335;DHT22;10325;51.468;5.804;2023-05-10T07:05:29;21.10;64.20
20335;DHT22;10325;51.468;5.804;2023-05-10T07:07:59;21.10;64.40
20335;DHT22;10325;51.468;5.804;2023-05-10T07:10:32;21.10;64.30
20335;DHT22;10325;51.468;5.804;2023-05-10T07:13:02;21.10;64.30
20335;DHT22;10325;51.468;5.804;2023-05-10T07:15:35;21.10;64.20
20335;DHT22;10325;51.468;5.804;2023-05-10T07:18:08;21.10;64.20
20335;DHT22;10325;51.468;5.804;2023-05-10T07:20:37;21.10;64.20
20335;DHT22;10325;51.468;5.804;2023-05-10T07:23:08;21.10;64.10
20335;DHT22;10325;51.468;5.804;2023-05-10T07:25:38;21.10;64.10
20335;DHT22;10325;51.468;5.804;2023-05-10T07:28:09;21.10;64.10
20335;DHT22;10325;51.468;5.804;2023-05-10T07:30:39;21.10;64.10
20335;DHT22;10325;51.468;5.804;2023-05-10T07:33:14;21.10;64.20
20335;DHT22;10325;51.468;5.804;2023-05-10T07:35:49;21.10;64.20
20335;DHT22;10325;51.468;5.804;2023-05-10T07:38:22;21.10;64.20
20335;DHT22;10325;51.468;5.804;2023-05-10T07:40:53;21.10;64.10
20335;DHT22;10325;51.468;5.804;2023-05-10T07:43:25;21.10;64.10
20335;DHT22;10325;51.468;5.804;2023-05-10T07:45:54;21.20;64.20
20335;DHT22;10325;51.468;5.804;2023-05-10T07:48:24;21.10;64.20
20335;DHT22;10325;51.468;5.804;2023-05-10T07:50:52;21.10;64.20
20335;DHT22;10325;51.468;5.804;2023-05-10T07:53:23;21.20;64.20
20335;DHT22;10325;51.468;5.804;2023-05-10T07:55:59;21.20;64.30
20335;DHT22;10325;51.468;5.804;2023-05-10T07:58:34;21.20;64.30
20335;DHT22;10325;51.468;5.804;2023-05-10T08:01:05;21.20;64.30
20335;DHT22;10325;51.468;5.804;2023-05-10T08:03:42;21.10;64.30
20335;DHT22;10325;51.468;5.804;2023-05-10T08:06:10;21.20;64.30
20335;DHT22;10325;51.468;5.804;2023-05-10T08:08:40;21.20;64.30
20335;DHT22;10325;51.468;5.804;2023-05-10T08:11:10;21.10;64.20
20335;DHT22;10325;51.468;5.804;2023-05-10T08:13:42;21.10;64.20
20335;DHT22;10325;51.468;5.804;2023-05-10T08:16:13;21.10;64.10
20335;DHT22;10325;51.468;5.804;2023-05-10T08:18:45;21.10;64.10
20335;DHT22;10325;51.468;5.804;2023-05-10T08:21:16;21.20;64.10
20335;DHT22;10325;51.468;5.804;2023-05-10T08:24:01;21.10;64.00
20335;DHT22;10325;51.468;5.804;2023-05-10T08:26:28;21.20;64.10
20335;DHT22;10325;51.468;5.804;2023-05-10T08:28:58;21.20;64.10
20335;DHT22;10325;51.468;5.804;2023-05-10T08:31:29;21.20;64.10
20335;DHT22;10325;51.468;5.804;2023-05-10T08:33:59;21.10;64.10
20335;DHT22;10325;51.468;5.804;2023-05-10T08:36:32;21.20;64.20
20335;DHT22;10325;51.468;5.804;2023-05-10T08:39:05;21.10;64.30
20335;DHT22;10325;51.468;5.804;2023-05-10T08:41:53;21.20;64.40
20335;DHT22;10325;51.468;5.804;2023-05-10T08:44:25;21.10;64.30
20335;DHT22;10325;51.468;5.804;2023-05-10T08:46:58;21.20;64.40
20335;DHT22;10325;51.468;5.804;2023-05-10T08:49:33;21.30;64.50
20335;DHT22;10325;51.468;5.804;2023-05-10T08:52:08;21.30;64.80
20335;DHT22;10325;51.468;5.804;2023-05-10T08:54:40;21.30;64.80
20335;DHT22;10325;51.468;5.804;2023-05-10T08:57:09;21.30;65.20
20335;DHT22;10325;51.468;5.804;2023-05-10T08:59:38;21.40;65.00
20335;DHT22;10325;51.468;5.804;2023-05-10T09:02:11;21.40;65.00
20335;DHT22;10325;51.468;5.804;2023-05-10T09:04:46;21.40;64.80
20335;DHT22;10325;51.468;5.804;2023-05-10T09:07:18;21.40;65.00
20335;DHT22;10325;51.468;5.804;2023-05-10T09:09:47;21.50;65.20
20335;DHT22;10325;51.468;5.804;2023-05-10T09:12:18;21.50;66.10
20335;DHT22;10325;51.468;5.804;2023-05-10T09:14:54;21.50;65.70
20335;DHT22;10325;51.468;5.804;2023-05-10T09:17:25;21.50;65.30
20335;DHT22;10325;51.468;5.804;2023-05-10T09:20:03;21.50;64.80
20335;DHT22;10325;51.468;5.804;2023-05-10T09:22:34;21.60;65.80
20335;DHT22;10325;51.468;5.804;2023-05-10T09:25:15;21.60;64.80
20335;DHT22;10325;51.468;5.804;2023-05-10T09:27:59;21.60;65.30
20335;DHT22;10325;51.468;5.804;2023-05-10T09:30:32;21.60;64.90
20335;DHT22;10325;51.468;5.804;2023-05-10T09:33:03;21.60;64.60
20335;DHT22;10325;51.468;5.804;2023-05-10T09:35:33;21.60;64.40
20335;DHT22;10325;51.468;5.804;2023-05-10T09:38:04;21.70;64.20
20335;DHT22;10325;51.468;5.804;2023-05-10T09:40:32;21.70;64.30
20335;DHT22;10325;51.468;5.804;2023-05-10T09:43:05;21.70;64.10
20335;DHT22;10325;51.468;5.804;2023-05-10T09:45:34;21.70;63.70
20335;DHT22;10325;51.468;5.804;2023-05-10T09:48:06;21.80;63.60
20335;DHT22;10325;51.468;5.804;2023-05-10T09:50:36;21.70;63.30
20335;DHT22;10325;51.468;5.804;2023-05-10T09:53:06;21.80;63.50
20335;DHT22;10325;51.468;5.804;2023-05-10T09:55:46;21.80;63.40
20335;DHT22;10325;51.468;5.804;2023-05-10T09:58:21;21.80;63.60
20335;DHT22;10325;51.468;5.804;2023-05-10T10:00:52;21.80;63.80
20335;DHT22;10325;51.468;5.804;2023-05-10T10:03:23;21.80;63.50
20335;DHT22;10325;51.468;5.804;2023-05-10T10:05:51;21.80;64.40
20335;DHT22;10325;51.468;5.804;2023-05-10T10:08:21;21.80;64.60
20335;DHT22;10325;51.468;5.804;2023-05-10T10:10:52;21.90;63.50
20335;DHT22;10325;51.468;5.804;2023-05-10T10:13:23;21.90;66.40
20335;DHT22;10325;51.468;5.804;2023-05-10T10:15:55;21.90;66.40
20335;DHT22;10325;51.468;5.804;2023-05-10T10:18:27;21.80;66.70
20335;DHT22;10325;51.468;5.804;2023-05-10T10:20:59;21.90;66.90
20335;DHT22;10325;51.468;5.804;2023-05-10T10:23:32;21.80;67.80
20335;DHT22;10325;51.468;5.804;2023-05-10T10:26:09;21.80;68.30
20335;DHT22;10325;51.468;5.804;2023-05-10T10:29:16;21.80;68.40
20335;DHT22;10325;51.468;5.804;2023-05-10T10:34:45;21.80;69.70
20335;DHT22;10325;51.468;5.804;2023-05-10T10:37:17;21.80;70.10
20335;DHT22;10325;51.468;5.804;2023-05-10T10:39:47;21.80;70.60
20335;DHT22;10325;51.468;5.804;2023-05-10T10:42:14;21.80;70.50
20335;DHT22;10325;51.468;5.804;2023-05-10T10:44:45;21.80;70.70
20335;DHT22;10325;51.468;5.804;2023-05-10T10:47:22;21.80;70.40
20335;DHT22;10325;51.468;5.804;2023-05-10T10:52:40;21.80;70.40
20335;DHT22;10325;51.468;5.804;2023-05-10T10:55:23;21.80;70.30
20335;DHT22;10325;51.468;5.804;2023-05-10T10:57:59;21.80;70.50
20335;DHT22;10325;51.468;5.804;2023-05-10T11:01:18;21.80;70.30
20335;DHT22;10325;51.468;5.804;2023-05-10T11:04:17;21.80;69.90
20335;DHT22;10325;51.468;5.804;2023-05-10T11:06:50;21.80;69.30
20335;DHT22;10325;51.468;5.804;2023-05-10T11:09:29;21.80;70.20
20335;DHT22;10325;51.468;5.804;2023-05-10T11:12:09;21.80;70.50
20335;DHT22;10325;51.468;5.804;2023-05-10T11:14:39;21.80;71.20
20335;DHT22;10325;51.468;5.804;2023-05-10T11:17:24;21.80;71.20
20335;DHT22;10325;51.468;5.804;2023-05-10T11:20:14;21.80;70.90
20335;DHT22;10325;51.468;5.804;2023-05-10T11:23:12;21.80;71.40
20335;DHT22;10325;51.468;5.804;2023-05-10T11:25:47;21.80;71.50
20335;DHT22;10325;51.468;5.804;2023-05-10T11:28:19;21.80;71.60
20335;DHT22;10325;51.468;5.804;2023-05-10T11:30:51;21.80;71.60
20335;DHT22;10325;51.468;5.804;2023-05-10T11:33:23;21.80;71.60
20335;DHT22;10325;51.468;5.804;2023-05-10T11:35:52;21.80;71.90
20335;DHT22;10325;51.468;5.804;2023-05-10T11:38:23;21.80;71.90
20335;DHT22;10325;51.468;5.804;2023-05-10T11:40:52;21.80;71.70
20335;DHT22;10325;51.468;5.804;2023-05-10T11:43:24;21.80;71.70
20335;DHT22;10325;51.468;5.804;2023-05-10T11:45:55;21.80;71.40
20335;DHT22;10325;51.468;5.804;2023-05-10T11:48:23;21.80;71.60
20335;DHT22;10325;51.468;5.804;2023-05-10T11:50:52;21.80;71.60
20335;DHT22;10325;51.468;5.804;2023-05-10T11:53:30;21.80;71.50
20335;DHT22;10325;51.468;5.804;2023-05-10T11:56:11;21.80;71.20
20335;DHT22;10325;51.468;5.804;2023-05-10T11:58:40;21.80;71.40
20335;DHT22;10325;51.468;5.804;2023-05-10T12:01:12;21.80;71.30
20335;DHT22;10325;51.468;5.804;2023-05-10T12:03:56;21.80;71.30
20335;DHT22;10325;51.468;5.804;2023-05-10T12:06:39;21.80;71.40
20335;DHT22;10325;51.468;5.804;2023-05-10T12:09:12;21.80;71.30
20335;DHT22;10325;51.468;5.804;2023-05-10T12:11:40;21.80;71.00
20335;DHT22;10325;51.468;5.804;2023-05-10T12:14:12;21.80;71.40
20335;DHT22;10325;51.468;5.804;2023-05-10T12:16:45;21.80;71.00
20335;DHT22;10325;51.468;5.804;2023-05-10T12:19:21;21.80;71.10
20335;DHT22;10325;51.468;5.804;2023-05-10T12:21:58;21.80;71.20
20335;DHT22;10325;51.468;5.804;2023-05-10T12:24:29;21.80;71.30
20335;DHT22;10325;51.468;5.804;2023-05-10T12:26:57;21.80;70.80
20335;DHT22;10325;51.468;5.804;2023-05-10T12:29:41;21.80;71.20
20335;DHT22;10325;51.468;5.804;2023-05-10T12:32:18;21.80;71.10
20335;DHT22;10325;51.468;5.804;2023-05-10T12:34:49;21.80;70.80
20335;DHT22;10325;51.468;5.804;2023-05-10T12:37:27;21.80;70.80
20335;DHT22;10325;51.468;5.804;2023-05-10T12:39:58;21.80;70.60
20335;DHT22;10325;51.468;5.804;2023-05-10T12:42:27;21.80;70.60
20335;DHT22;10325;51.468;5.804;2023-05-10T12:44:59;21.80;70.20
20335;DHT22;10325;51.468;5.804;2023-05-10T12:47:29;21.80;70.80
20335;DHT22;10325;51.468;5.804;2023-05-10T12:50:02;21.80;70.80
20335;DHT22;10325;51.468;5.804;2023-05-10T12:52:37;21.80;70.60
20335;DHT22;10325;51.468;5.804;2023-05-10T12:55:08;21.80;70.40
20335;DHT22;10325;51.468;5.804;2023-05-10T12:57:39;21.80;70.60
20335;DHT22;10325;51.468;5.804;2023-05-10T13:00:09;21.80;70.40
20335;DHT22;10325;51.468;5.804;2023-05-10T13:02:41;21.80;70.20
20335;DHT22;10325;51.468;5.804;2023-05-10T13:05:24;21.80;70.10
20335;DHT22;10325;51.468;5.804;2023-05-10T13:07:56;21.80;70.10
20335;DHT22;10325;51.468;5.804;2023-05-10T13:10:25;21.80;70.20
20335;DHT22;10325;51.468;5.804;2023-05-10T13:12:57;21.80;70.40
20335;DHT22;10325;51.468;5.804;2023-05-10T13:15:26;21.70;70.40
20335;DHT22;10325;51.468;5.804;2023-05-10T13:17:56;21.80;70.50
20335;DHT22;10325;51.468;5.804;2023-05-10T13:20:24;21.70;70.50
20335;DHT22;10325;51.468;5.804;2023-05-10T13:22:55;21.70;70.40
20335;DHT22;10325;51.468;5.804;2023-05-10T13:25:26;21.70;70.40
20335;DHT22;10325;51.468;5.804;2023-05-10T13:27:56;21.80;70.30
20335;DHT22;10325;51.468;5.804;2023-05-10T13:30:27;21.70;70.20
20335;DHT22;10325;51.468;5.804;2023-05-10T13:33:00;21.70;70.00
20335;DHT22;10325;51.468;5.804;2023-05-10T13:35:29;21.80;70.10
20335;DHT22;10325;51.468;5.804;2023-05-10T13:38:01;21.70;70.00
20335;DHT22;10325;51.468;5.804;2023-05-10T13:40:38;21.70;69.90
20335;DHT22;10325;51.468;5.804;2023-05-10T13:43:09;21.70;70.00
20335;DHT22;10325;51.468;5.804;2023-05-10T13:45:46;21.70;69.70
20335;DHT22;10325;51.468;5.804;2023-05-10T13:48:18;21.80;69.80
20335;DHT22;10325;51.468;5.804;2023-05-10T13:50:48;21.70;69.90
20335;DHT22;10325;51.468;5.804;2023-05-10T13:53:18;21.70;70.00
20335;DHT22;10325;51.468;5.804;2023-05-10T13:55:49;21.70;70.00
20335;DHT22;10325;51.468;5.804;2023-05-10T13:58:20;21.70;70.00
20335;DHT22;10325;51.468;5.804;2023-05-10T14:00:50;21.70;70.10
20335;DHT22;10325;51.468;5.804;2023-05-10T14:03:20;21.70;70.00
20335;DHT22;10325;51.468;5.804;2023-05-10T14:05:53;21.70;70.10
20335;DHT22;10325;51.468;5.804;2023-05-10T14:08:24;21.70;70.00
20335;DHT22;10325;51.468;5.804;2023-05-10T14:10:54;21.70;70.00
20335;DHT22;10325;51.468;5.804;2023-05-10T14:13:27;21.70;70.00
20335;DHT22;10325;51.468;5.804;2023-05-10T14:16:00;21.70;69.90
20335;DHT22;10325;51.468;5.804;2023-05-10T14:18:28;21.70;69.80
20335;DHT22;10325;51.468;5.804;2023-05-10T14:20:59;21.80;70.10
20335;DHT22;10325;51.468;5.804;2023-05-10T14:23:29;21.70;69.80
20335;DHT22;10325;51.468;5.804;2023-05-10T14:26:01;21.70;69.90
20335;DHT22;10325;51.468;5.804;2023-05-10T14:28:33;21.70;69.80
20335;DHT22;10325;51.468;5.804;2023-05-10T14:31:04;21.70;69.70
20335;DHT22;10325;51.468;5.804;2023-05-10T14:33:35;21.80;69.40
20335;DHT22;10325;51.468;5.804;2023-05-10T14:36:07;21.70;69.20
20335;DHT22;10325;51.468;5.804;2023-05-10T14:38:39;21.70;69.10
20335;DHT22;10325;51.468;5.804;2023-05-10T14:41:09;21.70;69.10
20335;DHT22;10325;51.468;5.804;2023-05-10T14:43:42;21.70;68.80
20335;DHT22;10325;51.468;5.804;2023-05-10T14:46:12;21.70;68.60
20335;DHT22;10325;51.468;5.804;2023-05-10T14:48:43;21.70;68.60
20335;DHT22;10325;51.468;5.804;2023-05-10T14:51:11;21.70;68.30
20335;DHT22;10325;51.468;5.804;2023-05-10T14:53:42;21.70;68.30
20335;DHT22;10325;51.468;5.804;2023-05-10T14:56:13;21.70;68.00
20335;DHT22;10325;51.468;5.804;2023-05-10T14:58:43;21.70;68.00
20335;DHT22;10325;51.468;5.804;2023-05-10T15:01:19;21.70;67.90
20335;DHT22;10325;51.468;5.804;2023-05-10T15:03:49;21.70;67.70
20335;DHT22;10325;51.468;5.804;2023-05-10T15:06:31;21.70;67.70
20335;DHT22;10325;51.468;5.804;2023-05-10T15:08:59;21.70;67.60
20335;DHT22;10325;51.468;5.804;2023-05-10T15:11:29;21.70;67.50
20335;DHT22;10325;51.468;5.804;2023-05-10T15:14:01;21.70;67.60
20335;DHT22;10325;51.468;5.804;2023-05-10T15:16:30;21.70;67.60
20335;DHT22;10325;51.468;5.804;2023-05-10T15:19:04;21.70;67.60
20335;DHT22;10325;51.468;5.804;2023-05-10T15:21:34;21.70;67.60
20335;DHT22;10325;51.468;5.804;2023-05-10T15:24:15;21.70;67.40
20335;DHT22;10325;51.468;5.804;2023-05-10T15:26:51;21.70;67.50
20335;DHT22;10325;51.468;5.804;2023-05-10T15:29:23;21.70;67.20
20335;DHT22;10325;51.468;5.804;2023-05-10T15:31:54;21.70;67.10
20335;DHT22;10325;51.468;5.804;2023-05-10T15:34:23;21.70;67.00
20335;DHT22;10325;51.468;5.804;2023-05-10T15:36:57;21.70;67.10
20335;DHT22;10325;51.468;5.804;2023-05-10T15:39:28;21.70;67.00
20335;DHT22;10325;51.468;5.804;2023-05-10T15:41:58;21.60;67.10
20335;DHT22;10325;51.468;5.804;2023-05-10T15:44:28;21.60;67.00
20335;DHT22;10325;51.468;5.804;2023-05-10T15:47:03;21.70;67.10
20335;DHT22;10325;51.468;5.804;2023-05-10T15:49:35;21.60;67.00
20335;DHT22;10325;51.468;5.804;2023-05-10T15:52:05;21.60;67.00
20335;DHT22;10325;51.468;5.804;2023-05-10T15:54:36;21.60;66.90
20335;DHT22;10325;51.468;5.804;2023-05-10T15:57:08;21.60;66.90
20335;DHT22;10325;51.468;5.804;2023-05-10T15:59:36;21.60;66.90
20335;DHT22;10325;51.468;5.804;2023-05-10T16:02:08;21.70;66.80
20335;DHT22;10325;51.468;5.804;2023-05-10T16:04:37;21.70;66.80
20335;DHT22;10325;51.468;5.804;2023-05-10T16:07:14;21.60;66.70
20335;DHT22;10325;51.468;5.804;2023-05-10T16:09:43;21.60;66.80
20335;DHT22;10325;51.468;5.804;2023-05-10T16:12:11;21.70;67.00
20335;DHT22;10325;51.468;5.804;2023-05-10T16:14:43;21.70;67.00
20335;DHT22;10325;51.468;5.804;2023-05-10T16:17:14;21.60;66.70
20335;DHT22;10325;51.468;5.804;2023-05-10T16:19:44;21.60;66.70
20335;DHT22;10325;51.468;5.804;2023-05-10T16:22:12;21.60;66.70
20335;DHT22;10325;51.468;5.804;2023-05-10T16:24:44;21.60;66.70
20335;DHT22;10325;51.468;5.804;2023-05-10T16:27:16;21.60;66.80
20335;DHT22;10325;51.468;5.804;2023-05-10T16:29:48;21.60;66.90